Time;durP1;ratioP1;P1;durP2;ratioP2;P2;SDS_P1;SDS_P2;PMS_P1;PMS_P2;Temp;Humidity;BMP_temperature;BMP_pressure;BME280_temperature;BME280_humidity;BME280_pressure;Samples;Min_cycle;Max_cycle;Signal;HPM_P1;HPM_P2
2022/06/19 00:01:01;;;;;;;4.43;2.80;;;20.80;97.80;;;;;;4938844;29;20047;-79
2022/06/19 00:03:39;;;;;;;5.35;2.80;;;20.70;98.10;;;;;;4937378;29;20027;-80
2022/06/19 00:06:04;;;;;;;4.30;2.80;;;20.70;98.00;;;;;;4938820;29;20087;-79
2022/06/19 00:08:31;;;;;;;7.47;2.70;;;20.70;98.30;;;;;;4938355;29;20031;-77
2022/06/19 00:10:58;;;;;;;5.82;2.70;;;20.60;98.70;;;;;;4939610;29;20024;-80
2022/06/19 00:13:24;;;;;;;6.05;2.65;;;20.60;98.90;;;;;;4940034;29;20078;-79
2022/06/19 00:15:50;;;;;;;4.82;2.85;;;20.60;99.50;;;;;;4941341;29;20035;-78
2022/06/19 00:18:16;;;;;;;3.42;2.70;;;20.50;99.40;;;;;;4938007;29;20048;-80
2022/06/19 00:20:42;;;;;;;4.10;3.00;;;20.50;99.50;;;;;;4938119;29;20035;-80
2022/06/19 00:23:08;;;;;;;5.38;2.90;;;20.40;99.80;;;;;;4939029;29;20656;-79
2022/06/19 00:25:35;;;;;;;7.72;3.30;;;20.40;99.90;;;;;;4939057;29;20036;-78
2022/06/19 00:28:01;;;;;;;7.20;3.00;;;20.40;99.90;;;;;;4946194;29;20055;-79
2022/06/19 00:30:27;;;;;;;6.07;3.10;;;20.40;99.90;;;;;;4944641;29;20464;-79
2022/06/19 00:32:53;;;;;;;8.63;3.25;;;20.30;99.90;;;;;;4938302;29;20047;-80
2022/06/19 00:35:19;;;;;;;7.28;3.40;;;20.30;99.90;;;;;;4938789;29;20036;-79
2022/06/19 00:37:46;;;;;;;6.85;3.10;;;20.30;99.90;;;;;;4938053;29;20052;-79
2022/06/19 00:40:14;;;;;;;4.47;3.20;;;20.30;99.90;;;;;;4936640;29;20040;-79
2022/06/19 00:42:41;;;;;;;8.57;3.30;;;20.20;99.90;;;;;;4937969;29;20411;-80
2022/06/19 00:45:26;;;;;;;6.78;3.30;;;20.20;99.90;;;;;;4939386;29;20058;-77
2022/06/19 00:47:52;;;;;;;8.05;3.40;;;20.20;99.90;;;;;;4945953;29;20042;-79
2022/06/19 00:50:25;;;;;;;5.28;3.25;;;20.20;99.90;;;;;;4951799;29;20024;-79
2022/06/19 00:52:51;;;;;;;5.25;3.50;;;20.20;99.90;;;;;;4950868;29;20032;-77
2022/06/19 00:55:21;;;;;;;7.25;3.95;;;20.20;99.90;;;;;;4948523;29;20055;-79
2022/06/19 00:57:53;;;;;;;5.15;3.65;;;20.20;99.90;;;;;;4942378;29;20369;-79
2022/06/19 01:00:28;;;;;;;5.90;4.10;;;20.10;99.90;;;;;;4944916;29;20036;-80
2022/06/19 01:02:58;;;;;;;7.75;4.55;;;20.00;99.90;;;;;;4943599;29;20036;-80
2022/06/19 01:05:25;;;;;;;6.65;3.97;;;20.00;99.90;;;;;;4942994;29;20028;-80
2022/06/19 01:07:51;;;;;;;6.13;4.10;;;19.90;99.90;;;;;;4942802;29;20043;-78
2022/06/19 01:10:18;;;;;;;6.47;3.80;;;20.00;99.90;;;;;;4940655;29;20425;-79
2022/06/19 01:12:48;;;;;;;6.32;3.63;;;19.90;99.90;;;;;;4942956;29;20112;-79
2022/06/19 01:15:17;;;;;;;5.07;4.25;;;20.00;99.90;;;;;;4938828;29;20032;-79
2022/06/19 01:17:46;;;;;;;10.45;3.30;;;19.90;99.90;;;;;;4939029;29;20035;-80
2022/06/19 01:20:14;;;;;;;6.97;3.97;;;20.00;99.90;;;;;;4937742;29;20036;-78
2022/06/19 01:23:24;;;;;;;4.72;3.72;;;20.10;99.90;;;;;;4936233;29;20377;-79
2022/06/19 01:25:51;;;;;;;7.95;3.65;;;20.10;99.90;;;;;;4910684;29;20071;-79
2022/06/19 01:28:46;;;;;;;5.55;3.78;;;20.10;99.90;;;;;;4943256;29;20032;-79
2022/06/19 01:31:16;;;;;;;9.68;4.03;;;20.10;99.90;;;;;;4944959;29;20107;-79
2022/06/19 01:36:53;;;;;;;6.47;4.45;;;20.00;99.90;;;;;;4949397;29;20035;-78
2022/06/19 01:39:19;;;;;;;7.30;4.15;;;19.90;99.90;;;;;;4947750;29;20038;-77
2022/06/19 01:41:45;;;;;;;6.55;4.32;;;19.80;99.90;;;;;;4937496;29;20051;-80
2022/06/19 01:44:11;;;;;;;5.90;4.50;;;19.70;99.90;;;;;;4937227;29;20084;-80
2022/06/19 01:46:37;;;;;;;7.05;4.65;;;19.60;99.90;;;;;;4936968;29;20071;-79
2022/06/19 01:49:03;;;;;;;9.20;4.75;;;19.50;99.90;;;;;;4948419;29;20031;-78
2022/06/19 01:51:29;;;;;;;5.97;4.57;;;19.50;99.90;;;;;;4945791;29;20051;-80
2022/06/19 01:54:21;;;;;;;7.60;5.13;;;19.40;99.90;;;;;;4938390;29;20043;-78
2022/06/19 01:56:50;;;;;;;9.35;5.53;;;19.50;99.90;;;;;;4940656;29;20039;-81
2022/06/19 01:59:17;;;;;;;7.60;5.25;;;19.40;99.90;;;;;;4945888;29;20023;-78
2022/06/19 02:01:44;;;;;;;9.90;5.55;;;19.30;99.90;;;;;;4944696;29;20464;-79
2022/06/19 02:04:10;;;;;;;8.40;5.03;;;19.40;99.90;;;;;;4950126;29;20038;-79
2022/06/19 02:06:46;;;;;;;6.28;4.93;;;19.30;99.90;;;;;;4954824;28;20345;-77
2022/06/19 02:09:15;;;;;;;7.07;5.22;;;19.30;99.90;;;;;;4957325;29;20027;-78
2022/06/19 02:11:41;;;;;;;6.95;5.35;;;19.20;99.90;;;;;;4942268;29;20059;-78
2022/06/19 02:14:08;;;;;;;8.55;6.07;;;19.20;99.90;;;;;;4958815;28;20062;-79
2022/06/19 02:16:37;;;;;;;8.18;5.78;;;19.20;99.90;;;;;;4961271;28;20108;-78
2022/06/19 02:19:04;;;;;;;9.82;5.95;;;19.20;99.90;;;;;;4961608;28;20020;-77
2022/06/19 02:21:40;;;;;;;8.30;5.45;;;19.20;99.90;;;;;;4962134;29;20048;-78
2022/06/19 02:24:07;;;;;;;9.60;5.97;;;19.20;99.90;;;;;;4962184;28;20039;-78
2022/06/19 02:26:38;;;;;;;12.95;5.72;;;19.20;99.90;;;;;;4959671;29;20020;-77
2022/06/19 02:29:06;;;;;;;7.55;5.28;;;19.20;99.90;;;;;;4959900;28;20043;-80
2022/06/19 02:31:34;;;;;;;7.03;5.22;;;19.30;99.90;;;;;;4959440;28;20036;-78
2022/06/19 02:34:03;;;;;;;5.80;4.63;;;19.40;99.90;;;;;;4961308;28;20036;-78
2022/06/19 02:36:41;;;;;;;6.20;4.90;;;19.60;99.90;;;;;;4962375;28;20012;-77
2022/06/19 02:39:32;;;;;;;10.52;5.70;;;19.70;99.90;;;;;;4952114;29;20032;-79
2022/06/19 02:42:09;;;;;;;9.25;5.95;;;19.60;99.90;;;;;;4948106;29;20047;-78
2022/06/19 02:44:38;;;;;;;10.50;5.38;;;19.50;99.90;;;;;;4952478;29;20035;-77
2022/06/19 02:47:05;;;;;;;7.80;5.47;;;19.40;99.90;;;;;;4950194;29;20079;-79
2022/06/19 02:49:31;;;;;;;6.53;5.07;;;19.30;99.90;;;;;;4946497;29;20063;-77
2022/06/19 02:51:57;;;;;;;9.30;5.80;;;19.30;99.90;;;;;;4948770;29;20731;-78
2022/06/19 02:54:23;;;;;;;11.60;5.60;;;19.20;99.90;;;;;;4944918;29;20042;-79
2022/06/19 02:56:49;;;;;;;7.35;4.97;;;19.20;99.90;;;;;;4939709;29;20452;-79
2022/06/19 02:59:15;;;;;;;6.75;5.00;;;19.20;99.90;;;;;;4942702;29;20080;-79
2022/06/19 03:01:41;;;;;;;8.95;5.35;;;19.30;99.90;;;;;;4945539;29;20031;-79
2022/06/19 03:04:16;;;;;;;5.97;4.45;;;19.30;99.90;;;;;;4941585;29;20040;-79
2022/06/19 03:06:42;;;;;;;7.32;4.72;;;19.30;99.90;;;;;;4941914;29;20034;-78
2022/06/19 03:09:08;;;;;;;8.35;5.05;;;19.30;99.90;;;;;;4940835;29;20442;-78
2022/06/19 03:11:33;;;;;;;8.63;4.80;;;19.20;99.90;;;;;;4942829;29;20036;-77
2022/06/19 03:13:59;;;;;;;5.05;4.53;;;19.20;99.90;;;;;;4941468;29;20055;-78
2022/06/19 03:16:26;;;;;;;9.50;5.25;;;19.20;99.90;;;;;;4939322;29;20066;-79
2022/06/19 03:18:52;;;;;;;6.75;4.47;;;19.10;99.90;;;;;;4939522;29;20056;-79
2022/06/19 03:21:18;;;;;;;9.15;4.90;;;19.20;99.90;;;;;;4941333;29;20403;-82
2022/06/19 03:23:45;;;;;;;7.28;4.18;;;19.20;99.90;;;;;;4937037;29;20126;-80
2022/06/19 03:26:11;;;;;;;5.35;4.03;;;19.10;99.90;;;;;;4937877;29;20059;-80
2022/06/19 03:28:36;;;;;;;5.85;4.85;;;19.00;99.90;;;;;;4944646;29;20030;-80
2022/06/19 03:31:02;;;;;;;8.95;4.45;;;19.00;99.90;;;;;;4941843;29;20086;-79
2022/06/19 03:33:28;;;;;;;8.60;3.70;;;19.00;99.90;;;;;;4938753;29;20055;-78
2022/06/19 03:35:54;;;;;;;6.30;3.90;;;19.00;99.90;;;;;;4945655;29;20031;-79
2022/06/19 03:38:21;;;;;;;6.57;4.45;;;19.00;99.90;;;;;;4948777;29;20047;-81
2022/06/19 03:40:46;;;;;;;4.90;4.00;;;19.20;99.90;;;;;;4922034;29;20160;-83
2022/06/19 03:43:12;;;;;;;11.43;3.88;;;19.10;99.90;;;;;;4922763;29;20080;-80
2022/06/19 03:45:39;;;;;;;9.20;4.47;;;19.10;99.90;;;;;;4943183;29;20016;-79
2022/06/19 03:48:05;;;;;;;8.18;3.60;;;19.10;99.90;;;;;;4935392;29;20081;-80
2022/06/19 03:50:31;;;;;;;6.63;3.53;;;19.30;99.90;;;;;;4924926;29;20042;-81
2022/06/19 03:52:57;;;;;;;5.28;3.53;;;19.30;99.90;;;;;;4938426;29;20111;-81
2022/06/19 03:55:23;;;;;;;6.07;3.10;;;19.20;99.90;;;;;;4924711;29;20099;-79
2022/06/19 03:57:48;;;;;;;10.07;3.50;;;19.40;99.90;;;;;;4949640;29;20095;-79
2022/06/19 04:00:17;;;;;;;7.32;3.63;;;19.50;99.90;;;;;;4952724;29;20031;-80
2022/06/19 04:02:44;;;;;;;3.97;3.35;;;19.60;99.90;;;;;;4932031;29;20025;-81
2022/06/19 04:05:11;;;;;;;8.52;3.60;;;19.50;99.90;;;;;;4926083;29;20489;-80
2022/06/19 04:07:45;;;;;;;6.15;3.10;;;19.60;99.90;;;;;;4938204;29;20017;-81
2022/06/19 04:10:12;;;;;;;5.35;3.08;;;19.70;99.90;;;;;;4922482;29;20028;-80
2022/06/19 04:12:38;;;;;;;8.88;4.20;;;19.90;99.90;;;;;;4924127;29;20021;-80
2022/06/19 04:15:05;;;;;;;5.07;3.35;;;19.90;99.90;;;;;;4927018;29;20084;-78
2022/06/19 04:17:30;;;;;;;6.88;3.25;;;20.00;99.90;;;;;;4930876;29;20024;-78
2022/06/19 04:19:56;;;;;;;5.75;3.63;;;19.90;99.90;;;;;;4932575;29;20092;-79
2022/06/19 04:22:22;;;;;;;8.55;3.90;;;19.90;99.90;;;;;;4934242;29;20030;-78
2022/06/19 04:24:48;;;;;;;6.78;3.20;;;19.90;99.90;;;;;;4934484;29;20039;-80
2022/06/19 04:27:14;;;;;;;9.25;3.78;;;20.00;99.90;;;;;;4932585;29;20032;-79
2022/06/19 04:29:40;;;;;;;13.27;4.20;;;20.00;99.90;;;;;;4928628;29;20400;-81
2022/06/19 04:32:06;;;;;;;5.50;3.65;;;19.90;99.90;;;;;;4943311;29;20433;-81
2022/06/19 04:34:32;;;;;;;6.82;3.63;;;19.90;99.90;;;;;;4930365;29;20028;-81
2022/06/19 04:36:57;;;;;;;6.45;3.53;;;20.10;99.90;;;;;;4905854;29;20028;-81
2022/06/19 04:39:23;;;;;;;10.38;3.45;;;20.30;99.90;;;;;;4920511;29;20069;-81
2022/06/19 04:41:49;;;;;;;7.10;3.90;;;20.20;99.90;;;;;;4923841;29;20038;-81
2022/06/19 04:44:17;;;;;;;5.35;3.63;;;20.40;99.90;;;;;;4924407;29;20229;-81
2022/06/19 04:46:44;;;;;;;5.25;3.47;;;20.60;99.90;;;;;;4925263;29;20035;-80
2022/06/19 04:49:11;;;;;;;8.98;3.63;;;20.70;99.90;;;;;;4930778;29;20036;-80
2022/06/19 04:51:38;;;;;;;5.85;2.72;;;20.80;99.90;;;;;;4918581;29;20035;-80
2022/06/19 04:54:04;;;;;;;6.97;3.72;;;21.30;99.90;;;;;;4931444;29;20067;-79
2022/06/19 04:56:30;;;;;;;7.95;3.97;;;21.60;99.90;;;;;;4929311;29;20028;-79
2022/06/19 04:58:56;;;;;;;8.27;3.88;;;21.70;99.90;;;;;;4929568;29;20116;-79
2022/06/19 05:01:30;;;;;;;9.32;3.80;;;21.70;99.90;;;;;;4942950;29;20032;-80
2022/06/19 05:03:59;;;;;;;6.38;3.88;;;21.60;99.90;;;;;;4925110;29;20044;-81
2022/06/19 05:06:26;;;;;;;5.82;3.65;;;21.50;99.90;;;;;;4939204;29;20032;-80
2022/06/19 05:08:52;;;;;;;9.25;3.65;;;21.50;99.90;;;;;;4926575;29;20032;-81
2022/06/19 05:11:19;;;;;;;4.10;3.67;;;21.50;99.90;;;;;;4929344;29;20056;-80
2022/06/19 05:13:45;;;;;;;8.05;3.50;;;21.50;99.90;;;;;;4926465;29;20035;-80
2022/06/19 05:16:20;;;;;;;8.57;3.55;;;21.50;99.90;;;;;;4923285;29;20489;-80
2022/06/19 05:18:48;;;;;;;9.98;4.10;;;21.50;99.90;;;;;;4933847;29;20032;-79
2022/06/19 05:21:14;;;;;;;7.40;3.90;;;21.70;99.90;;;;;;4954543;29;20115;-78
2022/06/19 05:23:44;;;;;;;6.85;4.30;;;21.70;99.90;;;;;;4963018;23;20063;-86
2022/06/19 05:26:20;;;;;;;5.00;3.83;;;21.70;99.90;;;;;;4931389;29;20044;-87
2022/06/19 05:28:48;;;;;;;4.75;3.45;;;21.50;99.90;;;;;;4928167;29;20024;-84
2022/06/19 05:31:14;;;;;;;4.28;3.58;;;21.60;99.90;;;;;;4926473;29;20516;-87
2022/06/19 05:33:40;;;;;;;7.63;4.20;;;21.70;99.90;;;;;;4935723;29;20048;-89
2022/06/19 05:36:06;;;;;;;6.00;3.65;;;21.80;99.90;;;;;;4940774;29;20031;-88
2022/06/19 05:38:33;;;;;;;8.98;4.05;;;21.80;99.90;;;;;;4924266;29;20020;-88
2022/06/19 05:41:00;;;;;;;8.02;4.10;;;21.90;99.90;;;;;;4935221;29;20105;-87
2022/06/19 05:43:30;;;;;;;8.95;3.72;;;22.00;99.90;;;;;;4924528;29;20028;-88
2022/06/19 05:46:14;;;;;;;6.43;3.80;;;22.20;99.90;;;;;;4940014;29;20028;-87
2022/06/19 05:48:41;;;;;;;14.45;3.90;;;22.20;99.90;;;;;;4940673;29;20012;-87
2022/06/19 05:51:16;;;;;;;8.50;4.20;;;22.20;99.90;;;;;;4930193;29;20044;-85
2022/06/19 05:53:45;;;;;;;8.13;4.40;;;22.40;99.90;;;;;;4909621;29;20035;-86
2022/06/19 05:56:11;;;;;;;11.43;4.50;;;22.50;99.90;;;;;;4924727;29;20032;-87
2022/06/19 05:58:38;;;;;;;5.25;3.80;;;22.50;99.90;;;;;;4939119;29;20064;-86
2022/06/19 06:01:04;;;;;;;7.07;4.22;;;22.50;99.90;;;;;;4919287;29;20520;-87
2022/06/19 06:03:31;;;;;;;7.15;4.95;;;22.70;99.90;;;;;;4915159;29;20092;-84
2022/06/19 06:06:10;;;;;;;7.97;4.20;;;22.90;99.90;;;;;;4921434;29;20024;-86
2022/06/19 06:08:37;;;;;;;6.95;4.30;;;23.00;99.90;;;;;;4926521;29;20028;-86
2022/06/19 06:11:04;;;;;;;8.30;4.15;;;23.00;99.90;;;;;;4927093;29;20012;-86
2022/06/19 06:13:30;;;;;;;9.88;4.22;;;23.10;99.90;;;;;;4933790;29;20043;-84
2022/06/19 06:15:58;;;;;;;9.68;4.18;;;22.90;99.90;;;;;;4935265;29;20115;-84
2022/06/19 06:18:28;;;;;;;7.88;4.53;;;23.00;99.90;;;;;;4934108;29;20032;-85
2022/06/19 06:21:03;;;;;;;8.63;4.60;;;23.10;99.90;;;;;;4924069;29;20039;-86
2022/06/19 06:23:30;;;;;;;6.47;4.30;;;23.20;99.90;;;;;;4897276;29;20036;-85
2022/06/19 06:26:10;;;;;;;9.07;4.18;;;23.30;99.90;;;;;;4913056;29;20032;-86
2022/06/19 06:28:39;;;;;;;9.10;4.20;;;23.40;99.90;;;;;;4914064;29;20028;-87
2022/06/19 06:31:05;;;;;;;8.95;4.05;;;23.40;99.90;;;;;;4912877;29;20046;-84
2022/06/19 06:33:32;;;;;;;17.20;4.63;;;23.50;99.90;;;;;;4933937;29;20032;-85
2022/06/19 06:35:58;;;;;;;8.85;4.18;;;23.40;99.90;;;;;;4934413;29;20035;-85
2022/06/19 06:38:25;;;;;;;8.55;4.30;;;23.60;99.90;;;;;;4927031;29;20036;-85
2022/06/19 06:40:52;;;;;;;7.47;4.25;;;23.60;99.90;;;;;;4912999;29;20039;-86
2022/06/19 06:43:19;;;;;;;5.47;3.60;;;23.70;99.90;;;;;;4913507;29;20065;-86
2022/06/19 06:45:45;;;;;;;5.10;3.47;;;23.80;99.90;;;;;;4912333;29;20115;-86
2022/06/19 06:48:11;;;;;;;5.07;3.60;;;23.90;99.90;;;;;;4914025;29;20053;-87
2022/06/19 06:50:38;;;;;;;7.55;4.38;;;24.00;99.90;;;;;;4897832;29;20028;-86
2022/06/19 06:53:06;;;;;;;4.47;3.10;;;24.20;99.90;;;;;;4914020;29;20032;-86
2022/06/19 06:55:31;;;;;;;8.45;3.10;;;24.30;99.90;;;;;;4913463;29;20039;-85
2022/06/19 06:57:57;;;;;;;5.32;2.45;;;24.30;99.60;;;;;;4916182;29;20037;-86
2022/06/19 07:00:24;;;;;;;5.78;3.03;;;24.30;98.30;;;;;;4918972;29;20037;-87
2022/06/19 07:02:51;;;;;;;8.55;2.47;;;24.40;98.00;;;;;;4916611;29;20129;-85
2022/06/19 07:05:17;;;;;;;7.97;2.60;;;24.50;97.30;;;;;;4920179;29;20032;-87
2022/06/19 07:07:43;;;;;;;8.63;2.75;;;24.60;97.10;;;;;;4912052;29;20040;-86
2022/06/19 07:10:11;;;;;;;8.20;2.47;;;24.80;97.10;;;;;;4915815;29;20025;-86
2022/06/19 07:12:37;;;;;;;3.70;1.92;;;24.80;96.60;;;;;;4920384;29;20035;-86
2022/06/19 07:15:03;;;;;;;3.25;2.30;;;24.90;95.70;;;;;;4925411;29;20020;-86
2022/06/19 07:17:29;;;;;;;8.35;2.20;;;24.90;95.90;;;;;;4919641;29;20032;-86
2022/06/19 07:19:55;;;;;;;7.05;2.30;;;24.90;95.60;;;;;;4924615;29;20034;-83
2022/06/19 07:22:21;;;;;;;4.38;2.50;;;24.90;94.80;;;;;;4923848;29;20032;-84
2022/06/19 07:24:46;;;;;;;7.00;2.30;;;24.90;95.20;;;;;;4923017;29;20032;-86
2022/06/19 07:27:12;;;;;;;4.03;2.42;;;25.00;94.70;;;;;;4925677;29;20036;-84
2022/06/19 07:29:46;;;;;;;5.43;2.33;;;25.00;94.60;;;;;;4928874;29;20043;-86
2022/06/19 07:32:12;;;;;;;5.28;2.15;;;25.10;94.70;;;;;;4929142;29;20108;-83
2022/06/19 07:34:41;;;;;;;6.30;2.40;;;25.20;94.30;;;;;;4932942;29;20008;-85
2022/06/19 07:37:07;;;;;;;5.68;2.25;;;25.30;94.60;;;;;;4929942;29;20040;-85
2022/06/19 07:39:34;;;;;;;4.55;2.30;;;25.30;94.00;;;;;;4934959;29;20021;-83
2022/06/19 07:42:00;;;;;;;3.90;2.15;;;25.30;93.80;;;;;;4931369;29;20013;-85
2022/06/19 07:44:27;;;;;;;3.95;2.35;;;25.20;93.80;;;;;;4927871;29;20035;-87
2022/06/19 07:52:23;;;;;;;5.68;2.55;;;25.40;93.80;;;;;;4917432;29;20069;-89
2022/06/19 07:54:49;;;;;;;6.03;2.45;;;25.50;93.80;;;;;;4920124;29;20089;-87
2022/06/19 07:57:15;;;;;;;10.43;2.75;;;25.60;93.20;;;;;;4920828;29;20036;-86
2022/06/19 07:59:40;;;;;;;3.55;2.25;;;25.70;93.10;;;;;;4930970;29;20068;-88
2022/06/19 08:02:06;;;;;;;11.52;2.30;;;25.70;93.10;;;;;;4934345;29;20028;-84
2022/06/19 08:04:32;;;;;;;4.53;1.90;;;25.70;92.90;;;;;;4935508;29;20032;-86
2022/06/19 08:06:58;;;;;;;7.45;2.38;;;25.70;92.80;;;;;;4933391;29;20043;-84
2022/06/19 08:09:24;;;;;;;4.00;2.47;;;25.90;92.80;;;;;;4933353;29;20475;-87
2022/06/19 08:11:49;;;;;;;4.15;2.25;;;26.00;93.00;;;;;;4928003;29;20028;-88
2022/06/19 08:14:15;;;;;;;6.15;1.70;;;26.00;92.40;;;;;;4923586;29;20028;-87
2022/06/19 08:16:41;;;;;;;9.90;2.65;;;26.00;91.70;;;;;;4924487;29;20067;-88
2022/06/19 08:19:07;;;;;;;5.50;2.40;;;26.00;91.70;;;;;;4926753;29;20028;-89
2022/06/19 08:21:33;;;;;;;4.90;2.20;;;26.00;91.70;;;;;;4927429;29;20113;-87
2022/06/19 08:23:59;;;;;;;4.60;2.20;;;26.00;91.00;;;;;;4927740;29;20043;-89
2022/06/19 08:26:25;;;;;;;3.08;1.80;;;26.10;91.50;;;;;;4926860;29;20036;-89
2022/06/19 08:31:16;;;;;;;4.50;2.33;;;26.20;90.60;;;;;;4926264;29;20401;-88
2022/06/19 08:33:42;;;;;;;3.03;2.13;;;26.30;90.70;;;;;;4928688;29;20021;-87
2022/06/19 08:36:11;;;;;;;4.43;2.03;;;26.30;90.80;;;;;;4935076;29;20028;-86
2022/06/19 08:38:44;;;;;;;4.53;1.80;;;26.30;90.90;;;;;;4939670;29;20009;-86
2022/06/19 08:41:32;;;;;;;7.32;2.60;;;26.30;90.30;;;;;;4940474;29;20059;-86
2022/06/19 08:44:18;;;;;;;8.73;2.70;;;26.50;90.60;;;;;;4939951;29;20028;-85
2022/06/19 08:46:53;;;;;;;9.27;2.85;;;26.50;90.60;;;;;;4939952;29;20052;-84
2022/06/19 08:49:58;;;;;;;3.15;2.40;;;26.60;90.30;;;;;;4939489;29;20024;-84
2022/06/19 08:52:42;;;;;;;6.72;3.08;;;26.70;90.50;;;;;;4933264;29;20475;-84
2022/06/19 08:55:20;;;;;;;7.85;3.30;;;26.70;90.40;;;;;;4933535;29;20319;-87
2022/06/19 08:58:05;;;;;;;5.32;2.80;;;26.80;90.30;;;;;;4928394;29;20020;-86
2022/06/19 09:00:41;;;;;;;3.10;2.55;;;26.80;90.10;;;;;;4931382;29;20043;-87
2022/06/19 09:03:26;;;;;;;6.57;3.33;;;26.70;90.40;;;;;;4914331;29;20036;-86
2022/06/19 09:06:16;;;;;;;9.87;3.13;;;26.80;90.60;;;;;;4936997;29;20056;-87
2022/06/19 09:08:53;;;;;;;10.68;4.95;;;26.90;90.60;;;;;;4937121;29;20032;-85
2022/06/19 09:11:26;;;;;;;20.58;13.07;;;26.90;90.10;;;;;;4939076;29;20044;-85
2022/06/19 09:14:10;;;;;;;23.85;11.65;;;26.80;89.50;;;;;;4938704;29;20032;-89
2022/06/19 09:16:38;;;;;;;22.73;13.88;;;26.80;88.60;;;;;;4932074;29;20012;-87
2022/06/19 09:19:14;;;;;;;26.98;15.90;;;27.00;89.00;;;;;;4919861;29;20080;-87
2022/06/19 09:22:07;;;;;;;27.05;17.02;;;27.20;88.40;;;;;;4921657;29;20021;-88
2022/06/19 09:25:00;;;;;;;22.83;12.93;;;27.40;89.20;;;;;;4932074;29;20024;-86
2022/06/19 09:27:34;;;;;;;14.13;8.80;;;27.60;87.60;;;;;;4934811;29;20032;-88
2022/06/19 09:30:07;;;;;;;14.53;9.10;;;27.60;88.90;;;;;;4928790;29;20028;-87
2022/06/19 09:32:55;;;;;;;19.55;10.60;;;27.60;88.00;;;;;;4933427;29;20024;-86
2022/06/19 09:35:24;;;;;;;14.75;9.27;;;27.70;87.30;;;;;;4922848;29;20048;-89
2022/06/19 09:38:23;;;;;;;12.55;8.75;;;27.80;87.30;;;;;;4922720;29;20081;-88
2022/06/19 09:40:58;;;;;;;10.70;5.90;;;27.80;87.50;;;;;;4920115;29;20104;-89
2022/06/19 09:43:36;;;;;;;8.05;4.60;;;28.00;87.90;;;;;;4918925;29;20040;-88
2022/06/19 09:46:09;;;;;;;9.18;5.40;;;28.00;86.80;;;;;;4918258;29;20036;-89
2022/06/19 09:48:41;;;;;;;11.35;4.50;;;28.30;86.80;;;;;;4918704;29;20039;-89
2022/06/19 09:51:16;;;;;;;12.75;3.60;;;28.40;85.80;;;;;;4917934;29;20069;-88
2022/06/19 09:54:05;;;;;;;;;;;28.50;85.90;;;;;;4915051;29;20064;-90
2022/06/19 09:56:50;;;;;;;8.10;4.03;;;28.80;85.40;;;;;;4907858;29;19914;-88
2022/06/19 10:00:10;;;;;;;7.05;3.60;;;29.20;84.90;;;;;;4924516;29;20092;-89
2022/06/19 10:03:18;;;;;;;8.23;3.53;;;29.50;83.70;;;;;;4867847;29;20029;-90
2022/06/19 10:05:51;;;;;;;7.75;5.20;;;29.90;82.80;;;;;;4924721;29;20044;-89
2022/06/19 10:08:51;;;;;;;9.68;4.07;;;30.10;81.80;;;;;;4926071;29;20080;-87
2022/06/19 10:11:34;;;;;;;9.30;4.05;;;30.30;81.00;;;;;;4940228;29;20029;-89
2022/06/19 10:14:14;;;;;;;12.80;4.47;;;30.60;80.60;;;;;;4908755;29;20035;-88
2022/06/19 10:16:50;;;;;;;9.57;3.30;;;31.30;79.20;;;;;;4927659;29;20096;-87
2022/06/19 10:19:25;;;;;;;10.45;3.88;;;31.30;77.70;;;;;;4940404;29;20029;-89
2022/06/19 10:22:13;;;;;;;11.82;3.97;;;31.90;77.80;;;;;;4932199;29;20016;-89
2022/06/19 10:25:06;;;;;;;7.70;2.75;;;32.60;76.90;;;;;;4940174;29;20036;-88
2022/06/19 10:27:52;;;;;;;9.05;4.50;;;32.60;74.90;;;;;;4935056;29;20044;-88
2022/06/19 10:30:26;;;;;;;12.60;4.05;;;33.30;75.00;;;;;;4939760;29;20052;-88
2022/06/19 10:33:04;;;;;;;9.02;2.90;;;33.90;72.60;;;;;;4930383;29;20065;-89
2022/06/19 10:35:37;;;;;;;7.75;2.80;;;34.20;71.00;;;;;;4936092;29;20031;-88
2022/06/19 10:38:18;;;;;;;7.93;3.00;;;34.60;69.80;;;;;;4939384;29;20101;-87
2022/06/19 10:41:01;;;;;;;6.72;2.90;;;34.70;69.40;;;;;;4925392;29;20076;-89
2022/06/19 10:43:39;;;;;;;5.97;2.80;;;35.00;69.70;;;;;;4928495;29;20032;-87
2022/06/19 10:46:10;;;;;;;10.82;3.20;;;36.10;66.70;;;;;;4921523;29;20032;-88
2022/06/19 10:48:55;;;;;;;5.82;2.47;;;36.00;66.60;;;;;;4928819;29;20016;-87
2022/06/19 10:51:29;;;;;;;11.95;2.83;;;35.50;65.60;;;;;;4930760;29;20027;-89
2022/06/19 10:54:21;;;;;;;10.10;2.63;;;34.80;66.30;;;;;;4926433;29;20036;-88
2022/06/19 10:57:31;;;;;;;8.60;2.70;;;34.80;66.80;;;;;;4926711;29;20036;-88
2022/06/19 10:59:57;;;;;;;8.02;2.38;;;35.30;66.00;;;;;;4918677;29;20504;-88
2022/06/19 11:05:38;;;;;;;7.30;2.60;;;35.00;65.60;;;;;;4922974;29;20092;-89
2022/06/19 11:08:04;;;;;;;9.50;2.42;;;34.70;65.20;;;;;;4910044;29;20024;-87
2022/06/19 11:10:33;;;;;;;4.78;2.80;;;34.40;65.70;;;;;;4917973;29;20013;-86
2022/06/19 11:13:01;;;;;;;6.07;3.60;;;34.80;65.60;;;;;;4931537;29;20052;-87
2022/06/19 11:15:27;;;;;;;3.92;2.90;;;35.30;64.90;;;;;;4924575;29;20053;-90
2022/06/19 11:18:19;;;;;;;5.65;3.13;;;34.80;64.90;;;;;;4929036;29;20033;-87
2022/06/19 11:20:57;;;;;;;10.98;2.83;;;35.40;64.60;;;;;;4931990;29;20039;-89
2022/06/19 11:23:37;;;;;;;8.45;3.05;;;34.60;64.80;;;;;;4929402;29;20029;-88
2022/06/19 11:26:14;;;;;;;6.63;3.00;;;35.00;65.00;;;;;;4958260;23;20131;-86
2022/06/19 11:28:47;;;;;;;4.70;2.70;;;35.70;64.40;;;;;;4944973;29;20031;-85
2022/06/19 11:31:34;;;;;;;9.85;3.80;;;36.00;63.80;;;;;;4942204;29;20032;-85
2022/06/19 11:34:43;;;;;;;7.35;2.72;;;36.50;62.70;;;;;;4945229;29;20101;-86
2022/06/19 11:37:18;;;;;;;15.38;2.53;;;36.30;62.60;;;;;;4921385;29;20032;-85
2022/06/19 11:40:06;;;;;;;7.43;2.53;;;36.50;62.10;;;;;;4924928;29;20060;-85
2022/06/19 11:42:38;;;;;;;8.00;3.22;;;36.60;62.20;;;;;;4922593;29;20052;-84
2022/06/19 11:45:26;;;;;;;7.00;2.25;;;37.20;61.80;;;;;;4936990;29;20060;-84
2022/06/19 11:47:58;;;;;;;11.18;3.40;;;37.90;59.50;;;;;;4934268;29;20056;-84
2022/06/19 11:50:36;;;;;;;3.70;2.45;;;37.70;60.20;;;;;;4932609;29;20047;-84
2022/06/19 11:53:05;;;;;;;5.97;2.70;;;37.80;59.50;;;;;;4933200;29;20110;-84
2022/06/19 11:55:31;;;;;;;7.13;3.30;;;37.80;59.60;;;;;;4933061;29;20028;-83
2022/06/19 11:58:12;;;;;;;8.98;3.60;;;38.40;58.90;;;;;;4931405;29;20453;-85
2022/06/19 12:00:40;;;;;;;6.03;2.17;;;38.60;58.30;;;;;;4932215;29;20032;-85
2022/06/19 12:03:35;;;;;;;9.38;2.72;;;38.20;58.60;;;;;;4927974;29;20035;-85
2022/06/19 12:06:05;;;;;;;6.68;2.53;;;38.20;58.50;;;;;;4917957;29;20109;-85
2022/06/19 12:08:36;;;;;;;9.10;3.53;;;38.20;58.10;;;;;;4926527;29;20096;-84
2022/06/19 12:11:05;;;;;;;7.57;3.38;;;37.80;58.70;;;;;;4926295;29;20040;-85
2022/06/19 12:13:37;;;;;;;9.32;3.33;;;38.30;58.20;;;;;;4926470;29;20028;-86
2022/06/19 12:16:11;;;;;;;8.27;2.88;;;38.10;57.80;;;;;;4908749;29;20092;-85
2022/06/19 12:18:37;;;;;;;9.05;3.15;;;39.00;57.40;;;;;;4925011;29;20438;-85
2022/06/19 12:21:26;;;;;;;6.20;2.55;;;38.70;56.90;;;;;;4924999;29;20038;-84
2022/06/19 12:24:04;;;;;;;5.53;2.20;;;38.10;57.70;;;;;;4915006;29;20494;-85
2022/06/19 12:26:39;;;;;;;4.80;2.22;;;38.20;57.50;;;;;;4924435;29;20068;-84
2022/06/19 12:29:33;;;;;;;9.23;2.75;;;37.10;57.90;;;;;;4924659;29;20032;-83
2022/06/19 12:32:25;;;;;;;7.47;2.45;;;37.00;58.00;;;;;;4924926;29;20031;-84
2022/06/19 12:34:56;;;;;;;7.28;2.75;;;37.00;58.40;;;;;;4914078;29;20066;-86
2022/06/19 12:37:23;;;;;;;8.95;2.78;;;37.20;58.20;;;;;;4925312;29;20040;-85
2022/06/19 12:39:50;;;;;;;8.48;2.92;;;37.50;58.30;;;;;;4925618;29;20032;-84
2022/06/19 12:42:26;;;;;;;5.88;2.72;;;38.20;57.60;;;;;;4924608;29;20068;-85
2022/06/19 12:45:29;;;;;;;11.75;2.30;;;38.20;57.40;;;;;;4924394;29;20032;-86
2022/06/19 12:48:00;;;;;;;4.53;2.50;;;37.60;57.50;;;;;;4937764;29;20044;-85
2022/06/19 12:50:45;;;;;;;9.50;2.20;;;37.80;57.60;;;;;;4925918;29;20047;-84
2022/06/19 12:53:39;;;;;;;7.22;2.58;;;38.60;58.00;;;;;;4926632;29;20491;-86
2022/06/19 12:56:23;;;;;;;6.43;3.30;;;39.30;56.70;;;;;;4923712;29;20024;-85
2022/06/19 12:58:57;;;;;;;4.93;2.03;;;39.50;56.50;;;;;;4924086;29;20060;-83
2022/06/19 13:01:54;;;;;;;5.15;2.22;;;40.10;55.90;;;;;;4934160;29;20032;-85
2022/06/19 13:04:39;;;;;;;6.68;2.60;;;39.30;56.10;;;;;;4940121;29;20020;-85
2022/06/19 13:07:19;;;;;;;9.52;2.63;;;39.10;56.40;;;;;;4927143;29;20048;-85
2022/06/19 13:10:14;;;;;;;6.18;2.65;;;38.80;56.80;;;;;;4924781;29;20032;-85
2022/06/19 13:12:42;;;;;;;7.25;2.80;;;38.50;57.10;;;;;;4899612;29;20103;-84
2022/06/19 13:15:17;;;;;;;4.30;2.67;;;38.50;57.30;;;;;;4924809;29;20032;-86
2022/06/19 13:18:01;;;;;;;4.00;2.88;;;38.70;57.70;;;;;;4923717;29;20032;-85
2022/06/19 13:20:52;;;;;;;4.63;2.67;;;39.40;56.90;;;;;;4925680;29;20108;-85
2022/06/19 13:23:22;;;;;;;4.20;2.17;;;39.50;56.30;;;;;;4924721;29;20044;-85
2022/06/19 13:26:07;;;;;;;4.18;2.35;;;38.80;56.30;;;;;;4922719;29;20040;-85